Terminal Aerodrome Forecast
Issued by NWS

Home | Current Version | Previous Version | Text Only | Print | Product List | Glossary On
Versions: 1 2 3 4 5 6 7 8 9 10 11 12
000
FTUS46 KPDT 171700
TAFPSC
TAF
KPSC 171734Z 1718/1818 22011KT P6SM -RA BKN050 OVC080
     FM180400 25015G25KT P6SM BKN050 BKN100
     FM180900 23018G28KT P6SM SCT050
     FM181400 22011G17KT P6SM SKC=

USA.gov is the U.S. government's official web portal to all federal, state and local government web resources and services.